Time;durP1;ratioP1;P1;durP2;ratioP2;P2;SDS_P1;SDS_P2;PMS_P1;PMS_P2;Temp;Humidity;BMP_temperature;BMP_pressure;BME280_temperature;BME280_humidity;BME280_pressure;Samples;Min_cycle;Max_cycle;Signal;HPM_P1;HPM_P2
2022/06/01 00:01:44;;;;;;;3.33;2.47;;;15.20;94.10;;;;;;10465292;28;20230;-71
2022/06/01 00:06:45;;;;;;;3.13;2.53;;;15.00;95.20;;;;;;10473505;28;20311;-71
2022/06/01 00:11:45;;;;;;;4.67;2.63;;;15.00;95.50;;;;;;10473525;28;20302;-72
2022/06/01 00:16:46;;;;;;;5.67;2.50;;;14.80;96.00;;;;;;10469280;28;20962;-72
2022/06/01 00:27:07;;;;;;;2.87;1.93;;;14.60;98.00;;;;;;10464460;28;20239;-72
2022/06/01 00:32:14;;;;;;;2.57;2.03;;;14.40;99.20;;;;;;10468153;28;20215;-71
2022/06/01 00:37:17;;;;;;;5.37;2.00;;;14.20;99.90;;;;;;10468489;28;20219;-71
2022/06/01 00:42:22;;;;;;;1.87;1.67;;;14.10;99.90;;;;;;10466444;28;20315;-71
2022/06/01 00:47:26;;;;;;;2.57;2.00;;;14.00;99.90;;;;;;10478673;28;20249;-70
2022/06/01 00:52:35;;;;;;;2.93;2.17;;;14.10;99.90;;;;;;10472540;28;20223;-70
2022/06/01 00:57:38;;;;;;;2.10;1.90;;;14.10;99.90;;;;;;10465221;28;20714;-70
2022/06/01 01:02:40;;;;;;;2.50;1.80;;;14.10;99.90;;;;;;10465324;28;20211;-71
2022/06/01 01:07:42;;;;;;;2.33;1.80;;;14.10;99.90;;;;;;10465420;28;20222;-71
2022/06/01 01:12:56;;;;;;;3.17;2.10;;;14.10;99.90;;;;;;10473659;28;20219;-72
2022/06/01 01:17:57;;;;;;;5.57;2.40;;;14.00;99.90;;;;;;10474660;28;20231;-71
2022/06/01 01:23:16;;;;;;;2.83;2.40;;;13.90;99.90;;;;;;10472400;28;20223;-71
2022/06/01 01:28:17;;;;;;;2.87;2.40;;;13.90;99.90;;;;;;10468693;28;20614;-71
2022/06/01 01:33:23;;;;;;;2.53;2.07;;;13.80;99.90;;;;;;10471961;28;20277;-71
2022/06/01 01:38:28;;;;;;;2.03;1.77;;;13.70;99.90;;;;;;10482148;28;20227;-71
2022/06/01 01:43:31;;;;;;;1.97;1.80;;;13.60;99.90;;;;;;10472667;28;20706;-71
2022/06/01 01:48:33;;;;;;;3.37;2.27;;;13.60;99.90;;;;;;10474949;28;20223;-72
2022/06/01 01:53:35;;;;;;;2.27;2.07;;;13.60;99.90;;;;;;10469404;28;20310;-72
2022/06/01 01:59:01;;;;;;;2.80;2.03;;;13.60;99.90;;;;;;10471778;28;20737;-71
2022/06/01 02:14:57;;;;;;;3.03;2.37;;;13.70;99.90;;;;;;10471077;28;20710;-70
2022/06/01 02:20:05;;;;;;;2.90;2.27;;;13.70;99.90;;;;;;10464979;28;20245;-70
2022/06/01 02:25:09;;;;;;;4.27;2.20;;;13.80;99.90;;;;;;10453873;28;20338;-70
2022/06/01 02:30:14;;;;;;;3.60;2.73;;;13.80;99.90;;;;;;10466647;28;20191;-70
2022/06/01 02:35:19;;;;;;;2.83;2.50;;;13.80;99.90;;;;;;10434264;28;20436;-71
2022/06/01 02:40:22;;;;;;;3.13;2.77;;;13.70;99.90;;;;;;10469760;28;20226;-71
2022/06/01 02:45:25;;;;;;;4.77;2.60;;;13.80;99.90;;;;;;10459779;28;20224;-72
2022/06/01 02:50:30;;;;;;;4.73;2.60;;;13.80;99.90;;;;;;10462945;28;20287;-71
2022/06/01 02:55:32;;;;;;;4.33;2.60;;;13.80;99.90;;;;;;10464163;28;20238;-71
2022/06/01 03:00:38;;;;;;;4.47;2.70;;;13.70;99.90;;;;;;10473051;28;20329;-70
2022/06/01 03:05:41;;;;;;;4.20;2.87;;;13.60;99.90;;;;;;10466251;28;20242;-70
2022/06/01 03:10:41;;;;;;;4.77;3.57;;;13.50;99.90;;;;;;10470564;28;20722;-70
2022/06/01 03:15:42;;;;;;;4.93;3.00;;;13.40;99.90;;;;;;10465029;28;20231;-70
2022/06/01 03:20:43;;;;;;;5.17;2.90;;;13.40;99.90;;;;;;10473087;28;20315;-71
2022/06/01 03:25:43;;;;;;;6.97;3.33;;;13.30;99.90;;;;;;10472592;28;20335;-71
2022/06/01 03:30:45;;;;;;;3.60;3.30;;;13.10;99.90;;;;;;10473848;28;20222;-71
2022/06/01 03:35:45;;;;;;;4.20;3.37;;;13.10;99.90;;;;;;10475976;28;20225;-70
2022/06/01 03:40:46;;;;;;;4.87;3.23;;;13.00;99.90;;;;;;10469170;28;20330;-70
2022/06/01 03:45:56;;;;;;;7.53;3.47;;;13.00;99.90;;;;;;10478767;28;20641;-69
2022/06/01 03:50:58;;;;;;;4.70;3.60;;;13.00;99.90;;;;;;10477944;28;20226;-69
2022/06/01 03:55:58;;;;;;;6.37;3.77;;;13.00;99.90;;;;;;10478465;28;20587;-70
2022/06/01 04:00:59;;;;;;;4.80;3.40;;;13.00;99.90;;;;;;10475231;28;20212;-69
2022/06/01 04:06:00;;;;;;;4.83;3.30;;;13.10;99.90;;;;;;10477062;28;20974;-70
2022/06/01 04:11:00;;;;;;;4.03;3.30;;;13.30;99.90;;;;;;10473869;28;20224;-70
2022/06/01 04:16:01;;;;;;;4.20;3.47;;;13.50;99.90;;;;;;10475848;28;20223;-70
2022/06/01 04:21:02;;;;;;;3.63;3.30;;;13.60;99.90;;;;;;10471313;28;20639;-69
2022/06/01 04:26:03;;;;;;;4.70;3.20;;;13.80;99.90;;;;;;10471901;28;20284;-70
2022/06/01 04:31:03;;;;;;;5.50;3.53;;;14.00;99.90;;;;;;10473606;28;20220;-70
2022/06/01 04:36:07;;;;;;;5.70;4.07;;;14.00;99.90;;;;;;10472625;28;20237;-70
2022/06/01 04:41:07;;;;;;;8.00;3.43;;;14.10;99.90;;;;;;10478238;28;20222;-70
2022/06/01 04:46:08;;;;;;;5.10;3.33;;;14.70;99.90;;;;;;10471614;28;20273;-71
2022/06/01 04:51:08;;;;;;;5.93;3.60;;;14.80;99.90;;;;;;10473897;28;20227;-70
2022/06/01 04:56:12;;;;;;;5.37;3.77;;;14.90;99.90;;;;;;10478591;28;20218;-71
2022/06/01 05:01:13;;;;;;;7.80;3.60;;;15.20;99.90;;;;;;10458576;28;20215;-71
2022/06/01 05:06:14;;;;;;;3.57;2.93;;;16.70;99.90;;;;;;10463572;28;20654;-70
2022/06/01 05:11:15;;;;;;;2.93;2.70;;;19.50;99.90;;;;;;10473106;28;20270;-71
2022/06/01 05:16:15;;;;;;;4.80;2.50;;;21.70;94.70;;;;;;10467673;28;20215;-72
2022/06/01 05:21:16;;;;;;;5.10;2.90;;;22.80;87.90;;;;;;10470430;28;20227;-70
2022/06/01 05:26:16;;;;;;;4.33;3.10;;;24.30;75.20;;;;;;10471610;28;20927;-70
2022/06/01 05:31:19;;;;;;;4.93;3.33;;;25.20;65.80;;;;;;10467110;28;20303;-70
2022/06/01 05:36:20;;;;;;;5.07;2.80;;;26.20;60.00;;;;;;10469938;28;20231;-70
2022/06/01 05:41:23;;;;;;;3.27;2.63;;;27.50;56.10;;;;;;10472385;28;20204;-71
2022/06/01 05:46:24;;;;;;;8.40;4.00;;;28.40;52.50;;;;;;10474184;28;20725;-71
2022/06/01 05:51:28;;;;;;;7.13;3.27;;;28.80;48.30;;;;;;10469828;28;20691;-69
2022/06/01 05:56:28;;;;;;;4.00;3.60;;;29.50;47.70;;;;;;10473427;28;20219;-70
2022/06/01 06:01:29;;;;;;;5.57;3.40;;;30.50;45.50;;;;;;10466068;28;20714;-72
2022/06/01 06:06:30;;;;;;;6.40;4.03;;;30.70;43.70;;;;;;10466011;28;20233;-70
2022/06/01 06:11:37;;;;;;;10.93;4.50;;;31.10;42.20;;;;;;10461369;28;20277;-74
2022/06/01 06:16:42;;;;;;;6.33;3.60;;;31.30;41.20;;;;;;10460188;28;20732;-72
2022/06/01 06:21:44;;;;;;;9.97;3.70;;;32.00;40.10;;;;;;10460277;28;20215;-70
2022/06/01 06:26:46;;;;;;;3.93;2.73;;;32.50;39.20;;;;;;10459452;28;20232;-69
2022/06/01 06:31:46;;;;;;;7.03;3.30;;;33.00;38.30;;;;;;10459788;28;20234;-70
2022/06/01 06:36:47;;;;;;;3.97;3.20;;;32.70;37.80;;;;;;10454404;28;20218;-71
2022/06/01 06:41:49;;;;;;;3.90;2.70;;;33.60;36.80;;;;;;10453282;28;20226;-71
2022/06/01 06:46:49;;;;;;;4.57;2.47;;;33.70;35.50;;;;;;10462562;28;20219;-71
2022/06/01 06:51:50;;;;;;;3.20;2.63;;;32.00;37.90;;;;;;10482226;28;20306;-71
2022/06/01 06:56:50;;;;;;;5.77;2.73;;;31.50;38.70;;;;;;10470981;28;20234;-71
2022/06/01 07:01:51;;;;;;;3.33;2.30;;;31.60;38.80;;;;;;10490722;28;20694;-69
2022/06/01 07:06:51;;;;;;;3.87;2.90;;;32.60;38.40;;;;;;10459210;28;20270;-70
2022/06/01 07:11:53;;;;;;;4.47;2.73;;;32.60;37.00;;;;;;10461440;28;20215;-72
2022/06/01 07:16:53;;;;;;;6.77;3.30;;;33.90;35.20;;;;;;10467366;28;20220;-73
2022/06/01 07:21:54;;;;;;;3.27;2.53;;;34.20;34.00;;;;;;10473954;28;20222;-72
2022/06/01 07:26:55;;;;;;;4.50;3.00;;;34.70;33.50;;;;;;10457591;28;20226;-71
2022/06/01 07:31:55;;;;;;;4.47;2.20;;;33.30;34.50;;;;;;10464753;28;20230;-70
2022/06/01 07:43:05;;;;;;;4.83;2.70;;;32.60;35.10;;;;;;10470222;28;20231;-71
2022/06/01 07:47:36;;;;;;;4.77;2.57;;;33.20;33.00;;;;;;10464942;28;20226;-72
2022/06/01 07:52:36;;;;;;;5.50;2.40;;;31.70;35.70;;;;;;10470614;28;20215;-70
2022/06/01 07:57:37;;;;;;;3.07;2.13;;;33.20;33.60;;;;;;10471931;28;20306;-72
2022/06/01 08:08:43;;;;;;;3.37;1.80;;;35.80;30.00;;;;;;10355445;28;20699;-72
2022/06/01 08:20:00;;;;;;;5.03;2.43;;;37.00;29.10;;;;;;10282242;28;20302;-72
2022/06/01 08:25:00;;;;;;;2.70;1.50;;;36.80;29.00;;;;;;10478068;28;20223;-73
2022/06/01 08:30:03;;;;;;;3.87;1.53;;;37.70;28.70;;;;;;10467589;28;20234;-73
2022/06/01 08:35:06;;;;;;;6.03;1.60;;;37.00;26.80;;;;;;10462988;28;20293;-73
2022/06/01 08:40:07;;;;;;;4.00;0.97;;;37.50;26.90;;;;;;10480034;28;20224;-73
2022/06/01 08:45:08;;;;;;;1.17;1.00;;;38.10;25.20;;;;;;10463021;28;20212;-71
2022/06/01 08:50:18;;;;;;;3.37;0.90;;;38.10;25.10;;;;;;10471007;28;20332;-71
2022/06/01 08:55:19;;;;;;;2.50;1.17;;;38.10;26.20;;;;;;10461550;28;20192;-71
2022/06/01 09:00:21;;;;;;;2.63;1.00;;;38.10;26.00;;;;;;10473982;28;20665;-71
2022/06/01 09:05:47;;;;;;;1.67;1.10;;;38.80;26.30;;;;;;10456210;28;20208;-72
2022/06/01 09:11:10;;;;;;;3.60;1.30;;;39.40;24.90;;;;;;10464750;28;20212;-72
2022/06/01 09:16:15;;;;;;;1.97;1.20;;;39.20;25.30;;;;;;10461414;28;20217;-72
2022/06/01 09:26:56;;;;;;;2.63;1.20;;;40.50;24.10;;;;;;10471729;28;20223;-70
2022/06/01 09:32:00;;;;;;;12.10;2.67;;;40.20;23.90;;;;;;10474566;28;20246;-72
2022/06/01 09:37:20;;;;;;;12.53;3.50;;;39.70;24.90;;;;;;10477690;28;20226;-70
2022/06/01 09:42:28;;;;;;;6.03;2.00;;;40.70;24.20;;;;;;10468655;28;20215;-72
2022/06/01 09:47:37;;;;;;;1.77;1.10;;;40.90;24.00;;;;;;10460332;28;20300;-71
2022/06/01 09:52:41;;;;;;;3.00;1.67;;;41.20;23.60;;;;;;10451927;28;20208;-71
2022/06/01 09:58:00;;;;;;;11.63;3.77;;;40.00;24.30;;;;;;10460674;28;20703;-71
2022/06/01 10:08:28;;;;;;;2.53;1.00;;;37.20;26.30;;;;;;10460239;28;20307;-71
2022/06/01 10:13:33;;;;;;;4.10;1.30;;;38.00;26.00;;;;;;10456926;28;20938;-71
2022/06/01 10:18:37;;;;;;;4.33;1.20;;;38.90;25.10;;;;;;10465083;28;20223;-72
2022/06/01 10:23:53;;;;;;;2.80;1.13;;;39.60;24.30;;;;;;10472277;28;20223;-71
2022/06/01 10:28:58;;;;;;;1.50;0.80;;;36.40;26.70;;;;;;10457529;28;20293;-72
2022/06/01 10:34:42;;;;;;;2.33;1.43;;;34.10;28.40;;;;;;10450430;28;20223;-72
2022/06/01 10:39:49;;;;;;;5.00;1.20;;;31.70;30.50;;;;;;10458980;28;20223;-71
2022/06/01 10:45:25;;;;;;;2.37;1.00;;;29.90;33.20;;;;;;10458397;28;20224;-72
2022/06/01 10:50:32;;;;;;;2.73;1.50;;;31.80;31.20;;;;;;10398893;28;20231;-71
2022/06/01 10:55:40;;;;;;;2.67;1.07;;;34.10;28.30;;;;;;10457440;28;20295;-72
2022/06/01 11:01:07;;;;;;;5.77;1.20;;;34.00;28.40;;;;;;10457588;28;20216;-72
2022/06/01 11:06:20;;;;;;;2.70;1.20;;;32.90;28.90;;;;;;10457875;28;20228;-72
2022/06/01 11:11:27;;;;;;;2.83;1.10;;;33.50;28.90;;;;;;10450791;28;20223;-71
2022/06/01 11:17:00;;;;;;;4.60;1.10;;;31.80;30.40;;;;;;10461078;28;20702;-72
2022/06/01 11:22:10;;;;;;;2.00;1.00;;;31.50;30.80;;;;;;10455202;28;20227;-72
2022/06/01 11:27:30;;;;;;;1.57;0.90;;;32.70;30.10;;;;;;10450222;28;20652;-72
2022/06/01 11:32:42;;;;;;;3.40;1.10;;;33.00;29.60;;;;;;10450232;28;20688;-71
2022/06/01 11:37:42;;;;;;;2.87;0.90;;;33.40;29.00;;;;;;10446605;28;20220;-71
2022/06/01 11:42:55;;;;;;;7.83;1.10;;;31.40;31.10;;;;;;10464028;28;20219;-72
2022/06/01 11:48:05;;;;;;;4.10;0.80;;;30.40;32.50;;;;;;10470495;28;20232;-72
2022/06/01 11:53:11;;;;;;;1.97;0.87;;;29.60;33.70;;;;;;10455040;28;20750;-70
2022/06/01 11:58:14;;;;;;;4.40;0.83;;;28.70;34.90;;;;;;10465053;28;20231;-72
2022/06/01 12:03:24;;;;;;;1.97;0.80;;;28.10;36.00;;;;;;10468468;28;20219;-71
2022/06/01 12:08:33;;;;;;;2.60;0.70;;;27.60;36.70;;;;;;10473100;28;20246;-71
2022/06/01 12:13:38;;;;;;;4.20;0.90;;;27.30;36.80;;;;;;10463788;28;20235;-71
2022/06/01 12:18:58;;;;;;;5.50;1.10;;;27.00;37.70;;;;;;10467477;28;20254;-71
2022/06/01 12:29:54;;;;;;;4.80;0.87;;;27.10;37.80;;;;;;10468332;28;20220;-71
2022/06/01 12:35:00;;;;;;;2.50;1.30;;;26.90;37.60;;;;;;10472708;28;20245;-72
2022/06/01 12:40:12;;;;;;;4.27;0.87;;;26.80;36.40;;;;;;10471199;28;20215;-71
2022/06/01 12:45:19;;;;;;;7.60;0.90;;;26.90;35.80;;;;;;10460368;28;20702;-72
2022/06/01 12:50:22;;;;;;;5.50;0.77;;;26.90;36.20;;;;;;10460983;28;20235;-71
2022/06/01 12:55:24;;;;;;;3.37;1.07;;;26.60;36.30;;;;;;10458160;28;20180;-72
2022/06/01 13:00:31;;;;;;;5.60;0.80;;;26.20;36.20;;;;;;10460842;28;20224;-72
2022/06/01 13:05:38;;;;;;;3.10;0.90;;;26.30;35.70;;;;;;10452115;28;20239;-73
2022/06/01 13:10:40;;;;;;;1.53;0.80;;;26.10;36.40;;;;;;10453017;28;20648;-72
2022/06/01 13:15:45;;;;;;;1.83;0.73;;;26.50;37.00;;;;;;10454663;28;20222;-71
2022/06/01 13:20:54;;;;;;;4.80;0.90;;;26.70;36.10;;;;;;10453635;28;20229;-71
2022/06/01 13:25:57;;;;;;;3.30;0.80;;;26.70;36.60;;;;;;10453766;28;20231;-72
2022/06/01 13:31:00;;;;;;;2.80;0.83;;;26.50;35.30;;;;;;10454324;28;20685;-72
2022/06/01 13:36:04;;;;;;;5.30;0.87;;;26.50;36.00;;;;;;10461976;28;20322;-74
2022/06/01 13:41:20;;;;;;;1.40;0.73;;;26.50;35.70;;;;;;10470217;28;20226;-73
2022/06/01 13:46:33;;;;;;;5.80;0.90;;;26.30;36.40;;;;;;10451362;28;20248;-72
2022/06/01 13:51:54;;;;;;;1.70;0.80;;;26.10;36.60;;;;;;10472559;28;20235;-72
2022/06/01 13:57:20;;;;;;;6.27;0.90;;;26.20;36.40;;;;;;10464069;28;20217;-72
2022/06/01 14:02:37;;;;;;;4.83;0.87;;;26.30;34.80;;;;;;10453210;28;20292;-72
2022/06/01 14:08:08;;;;;;;4.57;0.73;;;25.90;35.60;;;;;;10458868;28;20223;-72
2022/06/01 14:13:08;;;;;;;2.57;0.50;;;25.90;36.20;;;;;;10454008;28;20227;-71
2022/06/01 14:18:20;;;;;;;2.30;0.80;;;25.50;36.90;;;;;;10459395;28;20247;-70
2022/06/01 14:23:22;;;;;;;1.40;0.63;;;25.00;37.70;;;;;;10458807;28;20355;-69
2022/06/01 14:28:29;;;;;;;7.67;0.80;;;25.20;38.20;;;;;;10451018;28;20212;-71
2022/06/01 14:33:30;;;;;;;3.17;0.70;;;25.30;36.50;;;;;;10459027;28;20216;-70
2022/06/01 14:38:32;;;;;;;3.27;0.70;;;25.20;36.90;;;;;;10460958;28;20334;-71
2022/06/01 14:43:39;;;;;;;2.23;0.80;;;25.30;37.20;;;;;;10473672;28;20570;-71
2022/06/01 14:48:39;;;;;;;4.50;0.93;;;25.60;36.40;;;;;;10471158;28;20223;-70
2022/06/01 14:53:41;;;;;;;3.67;0.83;;;25.50;35.90;;;;;;10471866;28;20230;-69
2022/06/01 14:58:42;;;;;;;1.93;0.70;;;24.90;36.70;;;;;;10471481;28;20234;-71
2022/06/01 15:03:46;;;;;;;3.20;0.67;;;24.60;37.70;;;;;;10471314;28;20729;-71
2022/06/01 15:08:47;;;;;;;9.40;0.93;;;24.80;37.60;;;;;;10464916;28;20229;-70
2022/06/01 15:13:48;;;;;;;0.87;0.60;;;24.70;37.10;;;;;;10469324;28;20303;-70
2022/06/01 15:18:51;;;;;;;2.90;0.50;;;24.80;37.10;;;;;;10480669;28;20229;-70
2022/06/01 15:23:51;;;;;;;2.33;0.80;;;24.80;37.50;;;;;;10479016;28;20238;-70
2022/06/01 15:28:52;;;;;;;3.27;0.80;;;25.00;37.40;;;;;;10465756;28;20208;-69
2022/06/01 15:39:31;;;;;;;2.93;0.70;;;24.70;37.50;;;;;;10477503;28;20207;-70
2022/06/01 15:44:32;;;;;;;4.90;0.87;;;24.40;37.70;;;;;;10470726;28;20228;-70
2022/06/01 15:49:36;;;;;;;4.97;0.83;;;24.30;38.00;;;;;;10478610;28;20311;-70
2022/06/01 15:54:36;;;;;;;1.30;0.80;;;24.20;38.50;;;;;;10478420;28;20226;-70
2022/06/01 15:59:38;;;;;;;2.37;0.73;;;24.20;38.80;;;;;;10466778;28;20706;-69
2022/06/01 16:04:43;;;;;;;4.60;0.63;;;24.40;38.80;;;;;;10478948;28;20241;-71
2022/06/01 16:09:45;;;;;;;3.57;0.80;;;24.60;39.50;;;;;;10477953;28;20782;-70
2022/06/01 16:14:46;;;;;;;1.77;0.60;;;24.70;38.00;;;;;;10473497;28;20710;-70
2022/06/01 16:19:47;;;;;;;2.20;0.57;;;24.60;38.10;;;;;;10473199;28;20220;-69
2022/06/01 16:24:51;;;;;;;3.13;1.00;;;24.10;38.70;;;;;;10477239;28;20698;-69
2022/06/01 16:29:52;;;;;;;1.50;0.50;;;23.80;39.20;;;;;;10474623;28;20305;-70
2022/06/01 16:34:53;;;;;;;3.50;0.77;;;23.70;39.30;;;;;;10478341;28;20983;-70
2022/06/01 16:39:54;;;;;;;3.97;0.70;;;23.60;39.80;;;;;;10474526;28;20224;-71
2022/06/01 16:44:55;;;;;;;2.00;0.50;;;23.30;40.00;;;;;;10478121;28;20224;-70
2022/06/01 16:49:55;;;;;;;1.10;0.60;;;23.20;40.90;;;;;;10473508;28;20302;-70
2022/06/01 16:54:56;;;;;;;2.13;0.30;;;23.10;40.10;;;;;;10473074;28;20219;-69
2022/06/01 16:59:57;;;;;;;2.00;0.53;;;23.00;40.50;;;;;;10478804;28;20232;-69
2022/06/01 17:04:59;;;;;;;3.47;0.37;;;22.90;41.20;;;;;;10477627;28;20274;-70
2022/06/01 17:10:00;;;;;;;5.13;0.73;;;22.70;41.40;;;;;;10473988;28;20280;-69
2022/06/01 17:15:02;;;;;;;1.37;0.57;;;22.60;41.90;;;;;;10476925;28;20573;-71
2022/06/01 17:20:06;;;;;;;1.70;0.60;;;22.50;42.00;;;;;;10474919;28;20249;-69
2022/06/01 17:25:07;;;;;;;1.30;0.47;;;22.40;42.00;;;;;;10477824;28;20215;-69
2022/06/01 17:30:08;;;;;;;1.23;0.57;;;22.20;42.20;;;;;;10470987;28;20188;-69
2022/06/01 17:35:12;;;;;;;0.53;0.50;;;22.10;42.90;;;;;;10473453;28;20206;-70
2022/06/01 17:40:17;;;;;;;0.57;0.40;;;22.10;43.10;;;;;;10469832;28;20179;-70
2022/06/01 17:45:17;;;;;;;1.87;0.57;;;22.10;43.70;;;;;;10462321;28;20267;-70
2022/06/01 17:50:21;;;;;;;2.23;0.63;;;22.10;44.00;;;;;;10478571;28;20813;-69
2022/06/01 17:55:23;;;;;;;2.10;0.70;;;21.90;44.60;;;;;;10467294;28;20259;-68
2022/06/01 18:00:27;;;;;;;1.50;0.80;;;21.60;45.20;;;;;;10470846;28;20184;-69
2022/06/01 18:05:29;;;;;;;0.77;0.60;;;21.40;45.60;;;;;;10486133;28;20231;-71
2022/06/01 18:10:29;;;;;;;1.57;0.60;;;21.30;46.00;;;;;;10470336;28;20215;-70
2022/06/01 18:15:30;;;;;;;2.03;0.80;;;21.20;46.80;;;;;;10476053;28;20215;-71
2022/06/01 18:20:36;;;;;;;6.10;0.90;;;21.10;47.40;;;;;;10477880;28;20215;-70
2022/06/01 18:25:39;;;;;;;3.57;0.60;;;21.00;49.00;;;;;;10477819;28;20247;-69
2022/06/01 18:30:43;;;;;;;3.03;1.07;;;20.80;50.30;;;;;;10466801;28;20261;-70
2022/06/01 18:35:44;;;;;;;4.30;0.70;;;20.60;51.20;;;;;;10469170;28;20208;-70
2022/06/01 18:40:47;;;;;;;6.60;1.00;;;20.40;52.00;;;;;;10471048;28;20219;-70
2022/06/01 18:45:48;;;;;;;0.93;0.60;;;20.20;52.70;;;;;;10475627;28;20607;-70
2022/06/01 18:50:50;;;;;;;2.50;0.93;;;19.90;53.30;;;;;;10470390;28;20361;-70
2022/06/01 18:55:51;;;;;;;2.50;0.80;;;19.70;53.80;;;;;;10473325;28;20577;-69
2022/06/01 19:06:17;;;;;;;1.13;0.60;;;19.20;55.10;;;;;;10474275;28;20219;-70
2022/06/01 19:11:20;;;;;;;1.80;0.90;;;19.00;55.90;;;;;;10460388;28;20278;-71
2022/06/01 19:16:29;;;;;;;3.90;1.50;;;18.80;56.40;;;;;;10475292;28;20585;-70
2022/06/01 19:21:30;;;;;;;2.50;1.07;;;18.70;56.60;;;;;;10468393;28;20732;-70
2022/06/01 19:26:34;;;;;;;1.03;0.80;;;18.50;56.90;;;;;;10472743;28;20318;-69
2022/06/01 19:31:34;;;;;;;2.47;1.00;;;18.40;57.30;;;;;;10467110;28;20712;-70
2022/06/01 19:47:16;;;;;;;2.17;0.97;;;17.90;58.90;;;;;;10458228;28;20228;-70
2022/06/01 19:52:16;;;;;;;3.30;1.07;;;17.80;58.20;;;;;;10466867;28;20702;-72
2022/06/01 19:57:20;;;;;;;1.70;0.70;;;17.70;58.50;;;;;;10473968;28;20230;-70
2022/06/01 20:02:21;;;;;;;2.03;1.00;;;17.60;58.80;;;;;;10473459;28;20226;-71
2022/06/01 20:07:21;;;;;;;2.13;1.10;;;17.50;59.00;;;;;;10483388;28;20238;-70
2022/06/01 20:17:41;;;;;;;2.30;1.00;;;17.30;60.20;;;;;;10479769;28;20219;-70
2022/06/01 20:22:43;;;;;;;4.37;1.30;;;17.20;61.20;;;;;;10487420;28;20210;-71
2022/06/01 20:27:43;;;;;;;3.20;1.00;;;17.10;61.80;;;;;;10478390;28;20233;-71
2022/06/01 20:32:44;;;;;;;2.40;1.00;;;17.00;62.60;;;;;;10478608;28;20225;-71
2022/06/01 20:37:45;;;;;;;3.37;1.30;;;16.90;63.30;;;;;;10482543;28;20223;-71
2022/06/01 20:42:50;;;;;;;2.43;0.90;;;16.80;63.90;;;;;;10482342;28;20637;-70
2022/06/01 20:47:50;;;;;;;2.27;1.10;;;16.70;64.80;;;;;;10472786;28;20234;-71
2022/06/01 20:52:51;;;;;;;3.73;1.13;;;16.60;65.50;;;;;;10475719;28;20219;-70
2022/06/01 20:57:52;;;;;;;2.57;1.73;;;16.50;66.40;;;;;;10469966;28;20714;-70
2022/06/01 21:02:52;;;;;;;3.67;1.40;;;16.50;67.30;;;;;;10476819;28;20212;-71
2022/06/01 21:07:53;;;;;;;3.73;1.20;;;16.40;67.90;;;;;;10478631;28;20257;-71
2022/06/01 21:12:54;;;;;;;5.97;2.00;;;16.30;68.70;;;;;;10471724;28;20352;-70
2022/06/01 21:17:55;;;;;;;2.53;1.90;;;16.20;69.30;;;;;;10472560;28;20301;-70
2022/06/01 21:22:56;;;;;;;2.77;1.50;;;16.20;69.80;;;;;;10479447;28;20214;-71
2022/06/01 21:27:56;;;;;;;2.77;1.30;;;16.10;70.30;;;;;;10473571;28;20729;-71
2022/06/01 21:32:57;;;;;;;3.53;1.47;;;15.90;71.10;;;;;;10472801;28;20265;-70
2022/06/01 21:37:58;;;;;;;2.60;1.40;;;15.80;71.80;;;;;;10478111;28;20384;-70
2022/06/01 21:42:59;;;;;;;2.97;1.40;;;15.80;72.30;;;;;;10465798;28;20246;-71
2022/06/01 21:47:59;;;;;;;4.87;1.40;;;15.70;72.00;;;;;;10468473;28;20231;-69
2022/06/01 21:53:00;;;;;;;1.13;1.00;;;15.70;72.20;;;;;;10473862;28;20302;-70
2022/06/01 21:58:01;;;;;;;4.10;1.23;;;15.60;71.80;;;;;;10493327;28;20210;-70
2022/06/01 22:03:04;;;;;;;3.80;1.43;;;15.60;71.80;;;;;;10473632;28;20242;-70
2022/06/01 22:08:07;;;;;;;1.80;1.33;;;15.40;72.80;;;;;;10469882;28;20713;-70
2022/06/01 22:13:07;;;;;;;2.50;1.50;;;15.30;74.00;;;;;;10477857;28;20223;-70
2022/06/01 22:18:08;;;;;;;2.17;1.30;;;15.20;75.10;;;;;;10471619;28;20579;-70
2022/06/01 22:23:09;;;;;;;3.83;1.50;;;15.20;75.50;;;;;;10476836;28;20593;-70
2022/06/01 22:28:11;;;;;;;3.67;1.40;;;15.10;76.20;;;;;;10462661;28;20257;-71
2022/06/01 22:33:12;;;;;;;2.80;1.47;;;15.00;76.60;;;;;;10471517;28;20372;-70
2022/06/01 22:38:12;;;;;;;2.90;1.70;;;15.00;77.40;;;;;;10477932;28;20369;-70
2022/06/01 22:43:13;;;;;;;1.50;1.37;;;14.80;78.10;;;;;;10470119;28;20211;-70
2022/06/01 22:48:19;;;;;;;2.03;1.43;;;14.80;79.00;;;;;;10478131;28;20310;-70
2022/06/01 22:53:24;;;;;;;3.57;1.60;;;14.60;79.80;;;;;;10463105;28;20224;-70
2022/06/01 22:58:24;;;;;;;4.20;1.90;;;14.50;81.00;;;;;;10468727;28;20710;-71
2022/06/01 23:03:25;;;;;;;2.20;1.70;;;14.50;81.60;;;;;;10477622;28;20294;-70
2022/06/01 23:08:29;;;;;;;4.83;1.60;;;14.40;82.80;;;;;;10492243;28;20227;-71
2022/06/01 23:13:30;;;;;;;3.33;2.20;;;14.40;83.60;;;;;;10467370;28;20270;-71
2022/06/01 23:18:32;;;;;;;5.50;2.40;;;14.30;84.40;;;;;;10468670;28;20222;-71
2022/06/01 23:23:36;;;;;;;1.83;1.70;;;14.20;85.20;;;;;;10474409;28;20294;-71
2022/06/01 23:28:42;;;;;;;3.17;2.10;;;14.10;86.80;;;;;;10470384;28;20592;-71
2022/06/01 23:34:11;;;;;;;1.93;1.50;;;14.00;87.90;;;;;;10473175;28;20299;-70
2022/06/01 23:39:22;;;;;;;5.67;2.63;;;13.80;89.40;;;;;;10482206;28;20216;-70
2022/06/01 23:44:56;;;;;;;6.07;1.83;;;13.80;90.40;;;;;;10473193;28;20896;-70
2022/06/01 23:50:26;;;;;;;2.67;2.00;;;13.70;91.20;;;;;;10484421;28;20270;-69
2022/06/01 23:55:39;;;;;;;5.30;1.90;;;13.60;92.10;;;;;;10471014;28;20230;-70
